Time;durP1;ratioP1;P1;durP2;ratioP2;P2;SDS_P1;SDS_P2;PMS_P1;PMS_P2;Temp;Humidity;BMP_temperature;BMP_pressure;BME280_temperature;BME280_humidity;BME280_pressure;Samples;Min_cycle;Max_cycle;Signal;HPM_P1;HPM_P2
2023/11/12 00:01:42;;;;;;;;;;;5.70;65.10;;;0.93;100.00;94777.13;4968654;28;19917;-52
2023/11/12 00:04:09;;;;;;;;;;;5.70;65.10;;;0.86;100.00;94766.72;4973129;28;19916;-49
2023/11/12 00:06:35;;;;;;;;;;;5.70;65.50;;;0.78;100.00;94767.03;4968703;28;19910;-50
2023/11/12 00:09:04;;;;;;;;;;;5.70;65.00;;;0.80;100.00;94759.75;4969439;28;19973;-52
2023/11/12 00:11:34;;;;;;;;;;;5.70;65.00;;;0.79;100.00;94754.75;4963522;28;20429;-52
2023/11/12 00:14:00;;;;;;;;;;;5.70;65.00;;;0.75;100.00;94743.88;4972790;28;19949;-51
2023/11/12 00:16:27;;;;;;;;;;;5.70;64.90;;;0.73;100.00;94739.91;4959786;28;19996;-51
2023/11/12 00:18:54;;;;;;;;;;;5.60;64.90;;;0.70;100.00;94743.78;4965718;28;20015;-52
2023/11/12 00:21:20;;;;;;;;;;;5.60;64.90;;;0.64;100.00;94740.22;4967138;28;19909;-50
2023/11/12 00:23:47;;;;;;;;;;;5.60;64.80;;;0.59;100.00;94737.44;4966190;28;20422;-51
2023/11/12 00:26:13;;;;;;;;;;;5.50;64.80;;;0.54;100.00;94736.53;4966399;28;19913;-52
2023/11/12 00:28:41;;;;;;;;;;;5.50;64.80;;;0.50;100.00;94735.38;4972899;28;20336;-49
2023/11/12 00:31:07;;;;;;;;;;;5.40;64.80;;;0.43;100.00;94732.84;4972136;28;19955;-48
2023/11/12 00:33:33;;;;;;;;;;;5.40;65.60;;;0.36;100.00;94721.66;4972496;28;20443;-53
2023/11/12 00:35:59;;;;;;;;;;;5.40;64.80;;;0.28;100.00;94714.09;4966475;28;19965;-48
2023/11/12 00:38:25;;;;;;;;;;;5.30;64.80;;;0.22;100.00;94702.69;4955792;28;19959;-50
2023/11/12 00:40:54;;;;;;;;;;;5.30;64.80;;;0.21;100.00;94695.84;4967463;28;20013;-51
2023/11/12 00:43:27;;;;;;;;;;;5.30;64.80;;;0.16;100.00;94686.03;4956123;28;19910;-53
2023/11/12 00:45:59;;;;;;;;;;;5.20;64.80;;;0.14;100.00;94676.81;4974439;28;20308;-51
2023/11/12 00:48:26;;;;;;;;;;;5.20;64.80;;;0.10;100.00;94676.44;4967128;28;19914;-49
2023/11/12 00:50:52;;;;;;;;;;;5.10;64.80;;;0.04;100.00;94679.16;4968915;28;19917;-48
2023/11/12 00:53:18;;;;;;;;;;;5.10;64.90;;;-0.02;100.00;94673.78;4963484;28;20004;-53
2023/11/12 00:55:44;;;;;;;;;;;5.00;64.90;;;-0.05;100.00;94676.03;4968475;28;20300;-49
2023/11/12 00:58:11;;;;;;;;;;;5.00;65.00;;;-0.04;100.00;94675.00;4964360;28;19910;-48
2023/11/12 01:00:39;;;;;;;;;;;5.00;65.00;;;-0.02;100.00;94670.34;4961273;28;19917;-51
2023/11/12 01:03:06;;;;;;;;;;;4.90;65.10;;;0.03;100.00;94669.69;4971730;28;19914;-48
2023/11/12 01:05:32;;;;;;;;;;;4.90;65.20;;;-0.01;100.00;94667.50;4961654;28;19929;-48
2023/11/12 01:07:59;;;;;;;;;;;4.90;65.20;;;-0.04;100.00;94677.63;4972995;28;19977;-51
2023/11/12 01:10:25;;;;;;;;;;;4.90;65.20;;;-0.06;100.00;94682.28;4966004;28;19983;-53
2023/11/12 01:12:51;;;;;;;;;;;4.90;65.30;;;-0.07;100.00;94673.63;4966409;28;19937;-53
2023/11/12 01:15:17;;;;;;;;;;;4.80;65.30;;;-0.10;100.00;94676.69;4964353;28;20565;-52
2023/11/12 01:17:45;;;;;;;;;;;4.80;65.30;;;-0.08;100.00;94671.22;4973732;28;19909;-55
2023/11/12 01:20:12;;;;;;;;;;;4.80;65.40;;;-0.08;100.00;94668.63;4970787;28;19909;-54
2023/11/12 01:22:42;;;;;;;;;;;4.80;65.50;;;-0.09;100.00;94661.78;4962501;28;19933;-53
2023/11/12 01:25:09;;;;;;;;;;;4.80;65.50;;;-0.09;100.00;94659.97;4964982;28;19955;-55
2023/11/12 01:27:35;;;;;;;;;;;4.80;65.50;;;-0.12;100.00;94655.16;4968502;28;19910;-49
2023/11/12 01:30:03;;;;;;;;;;;4.80;65.50;;;-0.13;100.00;94644.91;4962582;28;19914;-48
2023/11/12 01:32:29;;;;;;;;;;;4.80;65.50;;;-0.15;100.00;94636.50;4965050;28;19921;-52
2023/11/12 01:34:54;;;;;;;;;;;4.80;65.50;;;-0.19;100.00;94623.03;4965176;28;19910;-51
2023/11/12 01:37:20;;;;;;;;;;;4.80;65.60;;;-0.18;100.00;94622.03;4964352;28;19917;-49
2023/11/12 01:39:49;;;;;;;;;;;4.80;65.60;;;-0.17;100.00;94615.75;4973239;28;20392;-51
2023/11/12 01:42:15;;;;;;;;;;;4.80;65.60;;;-0.19;100.00;94619.59;4957633;28;19914;-56
2023/11/12 01:44:43;;;;;;;;;;;4.80;65.60;;;-0.19;100.00;94620.41;4972367;28;19956;-55
2023/11/12 01:47:12;;;;;;;;;;;4.80;65.60;;;-0.21;100.00;94626.91;4958777;28;19910;-54
2023/11/12 01:49:38;;;;;;;;;;;4.80;65.70;;;-0.20;100.00;94616.19;4956338;28;20360;-49
2023/11/12 01:52:08;;;;;;;;;;;4.80;65.80;;;-0.15;100.00;94618.16;4957488;28;19925;-52
2023/11/12 01:54:39;;;;;;;;;;;4.80;65.70;;;-0.14;100.00;94619.75;4954628;28;19910;-50
2023/11/12 01:57:07;;;;;;;;;;;4.80;65.70;;;-0.13;100.00;94613.50;4963814;28;19983;-51
2023/11/12 01:59:35;;;;;;;;;;;4.90;65.80;;;-0.11;100.00;94627.16;4956088;28;19909;-56
2023/11/12 02:02:03;;;;;;;;;;;4.90;65.80;;;-0.12;100.00;94625.59;4971021;28;19936;-55
2023/11/12 02:04:29;;;;;;;;;;;4.90;65.80;;;-0.11;100.00;94632.41;4968078;28;20289;-55
2023/11/12 02:06:55;;;;;;;;;;;4.90;65.80;;;-0.07;100.00;94616.03;4971105;28;20044;-55
2023/11/12 02:09:24;;;;;;;;;;;4.90;65.80;;;-0.02;100.00;94607.50;4968703;28;19917;-50
2023/11/12 02:11:55;;;;;;;;;;;4.90;65.90;;;0.02;100.00;94603.41;4962426;28;19914;-52
2023/11/12 02:14:25;;;;;;;;;;;5.00;66.00;;;0.05;100.00;94604.81;4954775;28;20004;-51
2023/11/12 02:16:51;;;;;;;;;;;5.00;66.00;;;0.07;100.00;94608.00;4964340;28;19909;-55
2023/11/12 02:19:28;;;;;;;;;;;5.10;66.00;;;0.12;100.00;94606.28;4963556;28;19928;-54
2023/11/12 02:21:55;;;;;;;;;;;5.10;66.00;;;0.14;100.00;94604.25;4968931;28;19909;-51
2023/11/12 02:24:24;;;;;;;;;;;5.10;66.00;;;0.18;100.00;94594.13;4964569;28;19913;-51
2023/11/12 02:26:51;;;;;;;;;;;5.20;66.00;;;0.18;100.00;94587.06;4971321;28;19910;-51
2023/11/12 02:29:18;;;;;;;;;;;5.20;66.00;;;0.19;100.00;94574.81;4962799;28;19914;-51
2023/11/12 02:31:44;;;;;;;;;;;5.20;65.90;;;0.22;100.00;94567.28;4971215;28;19921;-50
2023/11/12 02:34:10;;;;;;;;;;;5.20;65.90;;;0.21;100.00;94557.81;4964312;28;19918;-53
2023/11/12 02:36:37;;;;;;;;;;;5.30;65.90;;;0.23;100.00;94562.84;4972599;28;19909;-49
2023/11/12 02:39:03;;;;;;;;;;;5.30;66.00;;;0.22;100.00;94558.63;4965961;28;19913;-53
2023/11/12 02:41:30;;;;;;;;;;;5.30;65.90;;;0.22;100.00;94548.16;4943971;28;19914;-50
2023/11/12 02:43:56;;;;;;;;;;;5.30;65.90;;;0.26;100.00;94553.75;4968025;28;20008;-51
2023/11/12 02:46:23;;;;;;;;;;;5.30;65.90;;;0.30;100.00;94557.50;4969129;28;19917;-54
2023/11/12 02:49:16;;;;;;;;;;;5.30;66.70;;;0.32;100.00;94550.22;4967979;28;19920;-50
2023/11/12 02:51:42;;;;;;;;;;;5.30;66.00;;;0.31;100.00;94548.59;4961174;28;20377;-50
2023/11/12 02:54:07;;;;;;;;;;;5.40;66.00;;;0.31;100.00;94549.41;4963381;28;19914;-54
2023/11/12 02:56:34;;;;;;;;;;;5.40;66.00;;;0.27;100.00;94529.94;4966781;28;20285;-53
2023/11/12 02:59:00;;;;;;;;;;;5.30;65.90;;;0.25;100.00;94524.09;4969412;28;19909;-51
2023/11/12 03:01:26;;;;;;;;;;;5.30;65.80;;;0.24;100.00;94522.53;4968186;28;20379;-52
2023/11/12 03:03:52;;;;;;;;;;;5.40;65.90;;;0.26;100.00;94522.31;4964260;28;19909;-51
2023/11/12 03:06:17;;;;;;;;;;;5.30;65.80;;;0.22;100.00;94519.34;4963759;28;19917;-50
2023/11/12 03:08:44;;;;;;;;;;;5.30;65.80;;;0.22;100.00;94503.63;4971219;28;19909;-49
2023/11/12 03:11:10;;;;;;;;;;;5.30;65.90;;;0.21;100.00;94510.66;4964316;28;20408;-52
2023/11/12 03:13:35;;;;;;;;;;;5.30;65.90;;;0.20;100.00;94505.66;4973514;28;20016;-52
2023/11/12 03:16:02;;;;;;;;;;;5.30;65.90;;;0.18;100.00;94511.13;4968178;28;19910;-49
2023/11/12 03:18:28;;;;;;;;;;;5.30;65.90;;;0.18;100.00;94502.47;4967808;28;20079;-49
2023/11/12 03:20:54;;;;;;;;;;;5.30;66.00;;;0.24;100.00;94498.94;4967077;28;19933;-53
2023/11/12 03:23:19;;;;;;;;;;;5.30;66.00;;;0.26;100.00;94493.50;4967331;28;19910;-49
2023/11/12 03:25:45;;;;;;;;;;;5.30;66.00;;;0.26;100.00;94498.72;4962974;28;19914;-53
2023/11/12 03:28:11;;;;;;;;;;;5.30;66.00;;;0.22;100.00;94499.19;4964714;28;20262;-48
2023/11/12 03:30:37;;;;;;;;;;;5.30;66.00;;;0.26;100.00;94490.88;4964313;28;19914;-50
2023/11/12 03:33:03;;;;;;;;;;;5.30;66.10;;;0.31;100.00;94486.53;4971185;28;19961;-54
2023/11/12 03:35:29;;;;;;;;;;;5.30;66.10;;;0.34;100.00;94490.53;4967150;28;20004;-50
2023/11/12 03:37:55;;;;;;;;;;;5.40;66.20;;;0.33;100.00;94486.31;4974543;28;20409;-51
2023/11/12 03:40:21;;;;;;;;;;;5.40;66.30;;;0.39;100.00;94483.59;4966859;28;19910;-53
2023/11/12 03:42:46;;;;;;;;;;;5.40;66.30;;;0.40;100.00;94479.13;4967861;28;19921;-52
2023/11/12 03:45:13;;;;;;;;;;;5.40;66.30;;;0.39;100.00;94473.09;4973831;28;20387;-51
2023/11/12 03:47:39;;;;;;;;;;;5.40;66.30;;;0.42;100.00;94479.72;4975247;28;19987;-49
2023/11/12 03:50:05;;;;;;;;;;;5.40;66.30;;;0.41;100.00;94471.06;4966021;28;20451;-54
2023/11/12 03:52:31;;;;;;;;;;;5.40;66.30;;;0.47;100.00;94477.22;4967163;28;19921;-51
2023/11/12 03:54:56;;;;;;;;;;;5.50;66.40;;;0.49;100.00;94484.84;4968366;28;19931;-51
2023/11/12 03:57:22;;;;;;;;;;;5.50;66.40;;;0.51;100.00;94480.97;4965877;28;19918;-51
2023/11/12 03:59:51;;;;;;;;;;;5.50;67.20;;;0.56;100.00;94475.03;4968432;28;19914;-53
2023/11/12 04:02:20;;;;;;;;;;;5.60;66.40;;;0.57;100.00;94469.56;4972181;28;19920;-51
2023/11/12 04:04:46;;;;;;;;;;;5.60;66.40;;;0.62;100.00;94471.50;4975002;28;19966;-48
2023/11/12 04:07:12;;;;;;;;;;;5.60;66.40;;;0.65;100.00;94463.97;4973717;28;20019;-49
2023/11/12 04:09:39;;;;;;;;;;;5.60;66.50;;;0.66;100.00;94454.31;4969659;28;19917;-48
2023/11/12 04:12:06;;;;;;;;;;;5.70;66.50;;;0.68;100.00;94457.47;4965370;28;19924;-48
2023/11/12 04:14:32;;;;;;;;;;;5.70;66.50;;;0.73;100.00;94465.44;4967181;28;19913;-53
2023/11/12 04:16:58;;;;;;;;;;;5.70;66.50;;;0.76;100.00;94470.25;4969944;28;19981;-51
2023/11/12 04:19:24;;;;;;;;;;;5.80;66.60;;;0.78;100.00;94470.00;4965757;28;19925;-50
2023/11/12 04:21:51;;;;;;;;;;;5.80;66.60;;;0.77;100.00;94474.44;4966701;28;19965;-49
2023/11/12 04:24:17;;;;;;;;;;;5.80;66.50;;;0.79;100.00;94476.84;4965767;28;20044;-47
2023/11/12 04:26:44;;;;;;;;;;;5.90;66.50;;;0.82;100.00;94477.19;4970416;28;19910;-46
2023/11/12 04:29:13;;;;;;;;;;;5.90;66.40;;;0.88;100.00;94478.09;4967003;28;20293;-47
2023/11/12 04:31:39;;;;;;;;;;;5.90;66.40;;;0.87;100.00;94479.88;4965291;28;19953;-47
2023/11/12 04:34:07;;;;;;;;;;;6.00;66.40;;;0.91;100.00;94478.44;4973189;28;19918;-47
2023/11/12 04:36:35;;;;;;;;;;;6.00;66.40;;;0.93;100.00;94478.19;4964306;28;19916;-46
2023/11/12 04:39:00;;;;;;;;;;;6.00;66.40;;;0.93;100.00;94478.19;4973327;28;19933;-46
2023/11/12 04:41:27;;;;;;;;;;;6.00;66.40;;;0.94;100.00;94490.28;4962868;28;19910;-47
2023/11/12 04:43:54;;;;;;;;;;;6.00;66.40;;;0.94;100.00;94485.03;4969350;28;19909;-46
2023/11/12 04:46:21;;;;;;;;;;;6.10;66.50;;;0.94;100.00;94490.28;4954072;28;20384;-49
2023/11/12 04:48:47;;;;;;;;;;;6.10;66.40;;;0.91;100.00;94496.00;4974415;28;19916;-48
2023/11/12 04:51:13;;;;;;;;;;;6.10;66.40;;;0.95;100.00;94501.56;4971052;28;19914;-46
2023/11/12 04:53:40;;;;;;;;;;;6.10;66.40;;;0.96;100.00;94508.41;4962906;28;19914;-48
2023/11/12 04:56:10;;;;;;;;;;;6.10;66.40;;;0.98;100.00;94506.34;4970540;28;19910;-46
2023/11/12 04:58:37;;;;;;;;;;;6.20;66.50;;;1.01;100.00;94519.00;4962774;28;19989;-47
2023/11/12 05:01:03;;;;;;;;;;;6.20;66.50;;;1.00;100.00;94517.38;4964030;28;19910;-47
2023/11/12 05:03:31;;;;;;;;;;;6.20;66.50;;;1.02;100.00;94516.13;4970102;28;20431;-48
2023/11/12 05:05:59;;;;;;;;;;;6.20;66.50;;;1.05;100.00;94520.91;4965464;28;20356;-54
2023/11/12 05:08:26;;;;;;;;;;;6.20;66.50;;;1.06;100.00;94516.47;4962072;28;20296;-53
2023/11/12 05:10:52;;;;;;;;;;;6.20;66.40;;;1.05;100.00;94515.66;4973911;28;19913;-48
2023/11/12 05:13:18;;;;;;;;;;;6.20;66.40;;;1.07;100.00;94524.13;4972259;28;20176;-47
2023/11/12 05:15:44;;;;;;;;;;;6.20;66.40;;;1.10;100.00;94518.41;4973889;28;19920;-49
2023/11/12 05:18:10;;;;;;;;;;;6.20;66.40;;;1.12;100.00;94532.06;4969157;28;19910;-46
2023/11/12 05:20:36;;;;;;;;;;;6.30;66.40;;;1.11;100.00;94540.19;4972412;28;19909;-47
2023/11/12 05:23:02;;;;;;;;;;;6.30;66.40;;;1.10;100.00;94538.59;4962352;28;19916;-52
2023/11/12 05:25:29;;;;;;;;;;;6.30;66.40;;;1.15;100.00;94541.31;4966872;28;19964;-49
2023/11/12 05:27:55;;;;;;;;;;;6.30;66.40;;;1.21;100.00;94544.84;4965992;28;20126;-46
2023/11/12 05:30:23;;;;;;;;;;;6.40;66.60;;;1.18;100.00;94551.34;4962432;28;20009;-46
2023/11/12 05:32:52;;;;;;;;;;;6.30;66.50;;;1.24;100.00;94550.41;4967880;28;19921;-49
2023/11/12 05:35:20;;;;;;;;;;;6.30;66.50;;;1.25;100.00;94556.47;4962564;28;20520;-47
2023/11/12 05:37:49;;;;;;;;;;;6.30;66.40;;;1.17;100.00;94547.13;4967285;28;20009;-49
2023/11/12 05:40:15;;;;;;;;;;;6.40;66.50;;;1.20;100.00;94545.88;4970838;28;19914;-49
2023/11/12 05:42:41;;;;;;;;;;;6.30;66.40;;;1.18;100.00;94548.72;4959810;28;19917;-48
2023/11/12 05:45:08;;;;;;;;;;;6.30;66.50;;;1.22;100.00;94544.59;4971026;28;19909;-47
2023/11/12 05:47:34;;;;;;;;;;;6.30;66.40;;;1.22;100.00;94547.22;4960649;28;19979;-47
2023/11/12 05:50:00;;;;;;;;;;;6.30;66.60;;;1.26;100.00;94550.22;4964299;28;19910;-48
2023/11/12 05:52:25;;;;;;;;;;;6.40;66.70;;;1.27;100.00;94543.91;4970881;28;19921;-47
2023/11/12 05:54:51;;;;;;;;;;;6.40;66.60;;;1.26;100.00;94548.38;4958962;28;20369;-46
2023/11/12 05:57:17;;;;;;;;;;;6.40;66.60;;;1.29;100.00;94552.38;4967175;28;20045;-47
2023/11/12 05:59:43;;;;;;;;;;;6.40;66.60;;;1.29;100.00;94547.13;4961282;28;19910;-48
2023/11/12 06:02:09;;;;;;;;;;;6.40;66.60;;;1.29;100.00;94553.16;4969178;28;19913;-50
2023/11/12 06:04:34;;;;;;;;;;;6.40;66.60;;;1.29;100.00;94555.78;4973133;28;20008;-49
2023/11/12 06:07:01;;;;;;;;;;;6.40;66.60;;;1.30;100.00;94551.34;4970523;28;20303;-52
2023/11/12 06:09:27;;;;;;;;;;;6.50;66.70;;;1.35;100.00;94549.63;4971677;28;19910;-50
2023/11/12 06:11:53;;;;;;;;;;;6.50;66.70;;;1.35;100.00;94544.38;4972507;28;20373;-47
2023/11/12 06:14:21;;;;;;;;;;;6.50;66.70;;;1.36;100.00;94538.06;4960840;28;19910;-47
2023/11/12 06:16:47;;;;;;;;;;;6.50;66.70;;;1.39;100.00;94545.50;4960398;28;20316;-47
2023/11/12 06:19:13;;;;;;;;;;;6.60;66.80;;;1.42;100.00;94544.22;4963272;28;19910;-47
2023/11/12 06:21:39;;;;;;;;;;;6.50;66.70;;;1.44;100.00;94534.28;4964620;28;19917;-47
2023/11/12 06:24:06;;;;;;;;;;;6.60;66.60;;;1.46;100.00;94534.06;4963297;28;19914;-47
2023/11/12 06:26:34;;;;;;;;;;;6.60;66.70;;;1.46;100.00;94526.97;4967133;28;20357;-48
2023/11/12 06:29:00;;;;;;;;;;;6.60;66.70;;;1.49;100.00;94531.75;4972344;28;20024;-46
2023/11/12 06:31:26;;;;;;;;;;;6.60;66.60;;;1.49;100.00;94528.34;4967267;28;19996;-47
2023/11/12 06:33:52;;;;;;;;;;;6.60;66.60;;;1.49;100.00;94531.75;4972328;28;20324;-47
2023/11/12 06:36:18;;;;;;;;;;;6.60;66.60;;;1.49;100.00;94534.38;4968951;28;20434;-47
2023/11/12 06:38:43;;;;;;;;;;;6.60;66.60;;;1.50;100.00;94541.22;4965571;28;19945;-46
2023/11/12 06:41:10;;;;;;;;;;;6.70;66.60;;;1.53;100.00;94545.22;4963930;28;20405;-46
2023/11/12 06:43:37;;;;;;;;;;;6.70;66.60;;;1.55;100.00;94541.34;4964259;28;19910;-48
2023/11/12 06:46:05;;;;;;;;;;;6.70;66.70;;;1.55;100.00;94549.22;4965144;28;26878;-48
2023/11/12 06:48:32;;;;;;;;;;;6.70;66.70;;;1.56;100.00;94556.03;4962547;28;19910;-51
2023/11/12 06:50:58;;;;;;;;;;;6.70;66.70;;;1.59;100.00;94555.56;4971334;28;19917;-47
2023/11/12 06:53:23;;;;;;;;;;;6.80;66.70;;;1.62;100.00;94562.19;4968197;28;19913;-48
2023/11/12 06:55:49;;;;;;;;;;;6.80;66.70;;;1.64;100.00;94568.03;4975374;28;19932;-49
2023/11/12 06:58:15;;;;;;;;;;;6.80;66.80;;;1.66;100.00;94579.09;4973523;28;20368;-47
2023/11/12 07:00:41;;;;;;;;;;;6.80;66.70;;;1.66;100.00;94581.72;4964982;28;20349;-48
2023/11/12 07:03:07;;;;;;;;;;;6.80;66.70;;;1.69;100.00;94589.09;4965807;28;19910;-49
2023/11/12 07:05:33;;;;;;;;;;;6.80;66.70;;;1.70;100.00;94592.56;4967983;28;19917;-47
2023/11/12 07:07:59;;;;;;;;;;;6.90;66.80;;;1.74;100.00;94598.91;4974081;28;19945;-48
2023/11/12 07:10:25;;;;;;;;;;;6.90;66.80;;;1.77;100.00;94587.94;4967966;28;20352;-47
2023/11/12 07:12:51;;;;;;;;;;;6.90;66.70;;;1.78;100.00;94600.84;4962664;28;19921;-49
2023/11/12 07:15:17;;;;;;;;;;;7.00;66.70;;;1.82;100.00;94595.94;4969407;28;19914;-46
2023/11/12 07:17:48;;;;;;;;;;;7.00;66.70;;;1.82;100.00;94603.81;4970205;28;19909;-48
2023/11/12 07:20:14;;;;;;;;;;;7.00;66.70;;;1.86;100.00;94604.94;4969632;28;20329;-49
2023/11/12 07:22:42;;;;;;;;;;;7.10;66.70;;;1.92;100.00;94605.84;4968267;28;19957;-51
2023/11/12 07:25:11;;;;;;;;;;;7.10;66.70;;;1.94;100.00;94601.13;4967710;28;19916;-50
2023/11/12 07:27:37;;;;;;;;;;;7.10;66.70;;;1.96;100.00;94604.31;4969399;28;19916;-52
2023/11/12 07:30:04;;;;;;;;;;;7.10;66.70;;;1.98;100.00;94602.28;4970218;28;20284;-48
2023/11/12 07:32:30;;;;;;;;;;;7.10;66.70;;;1.99;100.00;94612.53;4968208;28;20408;-49
2023/11/12 07:34:56;;;;;;;;;;;7.10;66.70;;;2.01;100.00;94618.38;4969301;28;19918;-51
2023/11/12 07:37:22;;;;;;;;;;;7.20;66.70;;;2.03;100.00;94616.28;4967302;28;19917;-49
2023/11/12 07:39:49;;;;;;;;;;;7.20;66.70;;;2.05;100.00;94626.56;4972614;28;19968;-46
2023/11/12 07:42:15;;;;;;;;;;;7.20;66.80;;;2.08;100.00;94632.16;4965349;28;19921;-48
2023/11/12 07:44:41;;;;;;;;;;;7.20;66.70;;;2.11;100.00;94632.72;4970193;28;20377;-49
2023/11/12 07:47:06;;;;;;;;;;;7.30;66.90;;;2.12;100.00;94634.31;4966437;28;19918;-49
2023/11/12 07:49:32;;;;;;;;;;;7.30;66.80;;;2.13;100.00;94639.34;4966118;28;20387;-51
2023/11/12 07:51:58;;;;;;;;;;;7.30;66.80;;;2.14;100.00;94640.13;4967302;28;20002;-55
2023/11/12 07:54:24;;;;;;;;;;;7.30;66.80;;;2.12;100.00;94637.72;4955673;28;19964;-49
2023/11/12 07:56:50;;;;;;;;;;;7.30;66.70;;;2.16;100.00;94638.84;4974728;28;19917;-46
2023/11/12 07:59:15;;;;;;;;;;;7.30;66.70;;;2.20;100.00;94641.81;4969540;28;19913;-47
2023/11/12 08:01:41;;;;;;;;;;;7.40;67.50;;;2.24;100.00;94642.94;4968129;28;19984;-46
2023/11/12 08:04:09;;;;;;;;;;;7.40;66.80;;;2.28;100.00;94654.56;4966769;28;20353;-47
2023/11/12 08:06:35;;;;;;;;;;;7.40;66.80;;;2.30;100.00;94655.94;4968308;28;19917;-46
2023/11/12 08:09:00;;;;;;;;;;;7.40;66.80;;;2.33;100.00;94659.13;4973706;28;19917;-47
2023/11/12 08:11:26;;;;;;;;;;;7.40;66.80;;;2.36;100.00;94656.03;4970550;28;19922;-49
2023/11/12 08:13:52;;;;;;;;;;;7.50;66.90;;;2.40;100.00;94655.31;4971360;28;19913;-54
2023/11/12 08:16:18;;;;;;;;;;;7.60;66.90;;;2.42;100.00;94648.00;4964057;28;20514;-48
2023/11/12 08:18:44;;;;;;;;;;;7.60;66.90;;;2.46;100.00;94650.97;4964580;28;19910;-46
2023/11/12 08:21:10;;;;;;;;;;;7.60;66.90;;;2.49;100.00;94651.28;4971573;28;19910;-48
2023/11/12 08:23:36;;;;;;;;;;;7.60;66.90;;;2.52;100.00;94653.44;4962743;28;19989;-48
2023/11/12 08:26:02;;;;;;;;;;;7.70;66.90;;;2.53;100.00;94655.03;4966010;28;19909;-48
2023/11/12 08:28:28;;;;;;;;;;;7.70;66.90;;;2.57;100.00;94662.44;4964480;28;19914;-46
2023/11/12 08:30:54;;;;;;;;;;;7.70;66.80;;;2.61;100.00;94658.31;4969024;28;19967;-46
2023/11/12 08:33:19;;;;;;;;;;;7.80;66.80;;;2.61;100.00;94660.94;4965137;28;19917;-48
2023/11/12 08:35:45;;;;;;;;;;;7.80;66.80;;;2.61;100.00;94650.44;4975003;28;19920;-47
2023/11/12 08:38:11;;;;;;;;;;;7.90;66.80;;;2.66;100.00;94648.66;4978093;28;19910;-49
2023/11/12 08:40:41;;;;;;;;;;;7.90;66.80;;;2.71;100.00;94651.38;4968412;28;19910;-54
2023/11/12 08:43:10;;;;;;;;;;;8.00;66.70;;;2.76;100.00;94656.75;4961164;28;19956;-58
2023/11/12 08:45:36;;;;;;;;;;;8.00;66.90;;;2.73;100.00;94661.69;4968122;28;20008;-49
2023/11/12 08:48:02;;;;;;;;;;;8.10;66.70;;;2.77;100.00;94668.06;4969652;28;20364;-54
2023/11/12 08:50:28;;;;;;;;;;;8.20;66.60;;;2.82;100.00;94665.53;4965740;28;19944;-47
2023/11/12 08:52:56;;;;;;;;;;;8.20;66.60;;;2.84;100.00;94676.59;4965679;28;19913;-48
2023/11/12 08:55:22;;;;;;;;;;;8.20;66.50;;;2.86;100.00;94677.16;4963653;28;19938;-46
2023/11/12 08:57:48;;;;;;;;;;;8.20;66.40;;;2.90;100.00;94675.63;4964440;28;19940;-46
2023/11/12 09:00:14;;;;;;;;;;;8.20;66.40;;;2.87;100.00;94676.09;4965722;28;19957;-46
2023/11/12 09:02:40;;;;;;;;;;;8.30;66.40;;;2.85;100.00;94675.56;4972450;28;19910;-51
2023/11/12 09:05:07;;;;;;;;;;;8.30;66.30;;;2.87;100.00;94673.47;4967672;28;19909;-48
2023/11/12 09:07:33;;;;;;;;;;;8.30;66.30;;;2.87;100.00;94673.47;4971085;28;20293;-47
2023/11/12 09:09:59;;;;;;;;;;;8.30;66.30;;;2.82;100.00;94670.78;4965563;28;19914;-47
2023/11/12 09:12:25;;;;;;;;;;;8.20;66.30;;;2.70;100.00;94681.38;4967756;28;20475;-48
2023/11/12 09:14:51;;;;;;;;;;;8.20;66.20;;;2.78;100.00;94688.06;4972900;28;20392;-46
2023/11/12 09:17:17;;;;;;;;;;;8.20;66.30;;;2.85;100.00;94691.34;4971259;28;19917;-49
2023/11/12 09:19:43;;;;;;;;;;;8.20;66.30;;;2.91;100.00;94698.25;4966052;28;20292;-47
2023/11/12 09:22:09;;;;;;;;;;;8.20;66.40;;;2.93;100.00;94695.41;4964270;28;20012;-49
2023/11/12 09:24:35;;;;;;;;;;;8.20;66.40;;;2.98;100.00;94696.31;4962202;28;20349;-49
2023/11/12 09:27:01;;;;;;;;;;;8.30;66.40;;;2.92;100.00;94691.19;4971500;28;19909;-46
2023/11/12 09:29:28;;;;;;;;;;;8.30;66.40;;;2.86;100.00;94692.16;4965563;28;20427;-47
2023/11/12 09:31:54;;;;;;;;;;;8.30;66.40;;;2.84;100.00;94692.38;4964205;28;19914;-54
2023/11/12 09:34:20;;;;;;;;;;;8.20;66.30;;;2.83;100.00;94693.41;4965191;28;19924;-47
2023/11/12 09:36:46;;;;;;;;;;;8.20;66.30;;;2.82;100.00;94699.72;4970937;28;19973;-49
2023/11/12 09:39:13;;;;;;;;;;;8.20;66.30;;;2.82;100.00;94704.97;4968310;28;19910;-47
2023/11/12 09:41:50;;;;;;;;;;;8.20;66.30;;;2.74;100.00;94702.72;4968084;28;19924;-47
2023/11/12 09:44:20;;;;;;;;;;;8.10;66.30;;;2.80;100.00;94714.94;4968945;28;20016;-49
2023/11/12 09:47:06;;;;;;;;;;;8.10;66.30;;;2.76;100.00;94719.06;4969754;28;19910;-47
2023/11/12 09:49:32;;;;;;;;;;;8.10;66.30;;;2.63;100.00;94720.13;4964995;28;19971;-46
2023/11/12 09:52:00;;;;;;;;;;;8.10;66.20;;;2.62;100.00;94736.94;4969814;28;20009;-47
2023/11/12 09:54:28;;;;;;;;;;;8.00;66.10;;;2.50;100.00;94742.25;4970200;28;20373;-47
2023/11/12 09:56:53;;;;;;;;;;;7.90;66.10;;;2.60;100.00;94738.22;4967929;28;20369;-52
2023/11/12 09:59:19;;;;;;;;;;;7.90;66.30;;;2.59;100.00;94734.78;4967699;28;19916;-51
2023/11/12 10:01:48;;;;;;;;;;;7.80;66.30;;;2.58;100.00;94735.84;4969461;28;20340;-48
2023/11/12 10:04:15;;;;;;;;;;;7.80;66.40;;;2.55;100.00;94729.22;4952243;28;20376;-47
2023/11/12 10:06:43;;;;;;;;;;;7.80;66.50;;;2.43;100.00;94731.09;4969591;28;20020;-53
2023/11/12 10:09:10;;;;;;;;;;;7.70;66.40;;;2.43;100.00;94725.81;4951810;28;20012;-48
2023/11/12 10:11:36;;;;;;;;;;;7.70;66.50;;;2.41;100.00;94724.47;4968818;28;19985;-51
2023/11/12 10:14:12;;;;;;;;;;;7.70;66.40;;;2.43;100.00;94725.03;4968040;28;19918;-48
2023/11/12 10:16:38;;;;;;;;;;;7.70;66.50;;;2.39;100.00;94732.59;4954099;28;19960;-53
2023/11/12 10:19:13;;;;;;;;;;;7.60;66.40;;;2.29;100.00;94730.56;4965807;28;19918;-50
2023/11/12 10:21:58;;;;;;;;;;;7.60;66.30;;;2.27;100.00;94727.38;4969997;28;20004;-49
2023/11/12 10:24:30;;;;;;;;;;;7.60;66.30;;;2.20;100.00;94731.16;4970660;28;20407;-48
2023/11/12 10:27:04;;;;;;;;;;;7.50;66.30;;;2.20;100.00;94728.53;4968892;28;20000;-47
2023/11/12 10:29:31;;;;;;;;;;;7.50;66.30;;;2.17;100.00;94715.88;4964962;28;19968;-49
2023/11/12 10:31:57;;;;;;;;;;;7.50;66.40;;;2.15;100.00;94702.16;4961564;28;19921;-50
2023/11/12 10:34:27;;;;;;;;;;;7.50;66.40;;;2.15;100.00;94695.06;4956067;28;19917;-46
2023/11/12 10:37:14;;;;;;;;;;;7.50;66.40;;;1.91;100.00;94694.31;4971824;28;19957;-47
2023/11/12 10:39:46;;;;;;;;;;;7.50;66.30;;;1.92;100.00;94695.94;4963660;28;20005;-47
2023/11/12 10:42:26;;;;;;;;;;;7.40;66.10;;;1.93;100.00;94702.78;4970854;28;19914;-47
2023/11/12 10:44:58;;;;;;;;;;;7.30;66.10;;;1.92;100.00;94698.56;4969281;28;19910;-47
2023/11/12 10:47:32;;;;;;;;;;;7.30;66.20;;;1.91;100.00;94712.69;4958299;28;19910;-48
2023/11/12 10:49:59;;;;;;;;;;;7.30;66.30;;;1.87;100.00;94708.16;4963431;28;20016;-49
2023/11/12 10:52:28;;;;;;;;;;;7.30;66.30;;;1.83;100.00;94710.44;4964616;28;20272;-46
2023/11/12 10:54:58;;;;;;;;;;;7.20;66.20;;;1.82;100.00;94712.28;4957991;28;19938;-49
2023/11/12 10:57:25;;;;;;;;;;;7.20;66.30;;;1.83;100.00;94718.31;4953772;28;20304;-48
2023/11/12 10:59:53;;;;;;;;;;;7.20;66.30;;;1.80;100.00;94705.66;4948856;28;20296;-49
2023/11/12 11:02:22;;;;;;;;;;;7.10;66.30;;;1.73;100.00;94710.25;4953158;28;19915;-53
2023/11/12 11:04:48;;;;;;;;;;;7.20;66.30;;;1.60;100.00;94708.66;4969705;28;20330;-54
2023/11/12 11:07:16;;;;;;;;;;;7.10;66.10;;;1.60;100.00;94711.28;4969722;28;20081;-50
2023/11/12 11:09:45;;;;;;;;;;;7.10;66.10;;;1.53;100.00;94710.56;4969587;28;20351;-54
2023/11/12 11:12:13;;;;;;;;;;;7.10;66.10;;;1.49;100.00;94712.88;4953042;28;20395;-51
2023/11/12 11:14:39;;;;;;;;;;;7.00;66.00;;;1.51;100.00;94705.56;4953951;28;19953;-53
2023/11/12 11:17:05;;;;;;;;;;;7.00;66.10;;;1.50;100.00;94701.34;4967934;28;19925;-47
2023/11/12 11:19:44;;;;;;;;;;;7.00;66.10;;;1.56;100.00;94699.63;4961098;28;19956;-49
2023/11/12 11:22:26;;;;;;;;;;;7.00;66.30;;;1.60;100.00;94698.16;4963421;28;20304;-50
2023/11/12 11:24:54;;;;;;;;;;;6.90;66.30;;;1.58;100.00;94710.69;4970587;28;20400;-48